Time;durP1;ratioP1;P1;durP2;ratioP2;P2;SDS_P1;SDS_P2;PMS_P1;PMS_P2;Temp;Humidity;BMP_temperature;BMP_pressure;BME280_temperature;BME280_humidity;BME280_pressure;Samples;Min_cycle;Max_cycle;Signal;HPM_P1;HPM_P2
2022/05/07 00:00:22;;;;;;;23.65;11.82;;;;;;;30.09;65.50;100624.88;5027937;28;66106;-40
2022/05/07 00:02:52;;;;;;;26.63;14.13;;;;;;;30.18;66.48;100637.06;5031647;28;70194;-41
2022/05/07 00:05:22;;;;;;;26.15;11.57;;;;;;;30.27;66.20;100649.28;5035528;28;65724;-39
2022/05/07 00:07:53;;;;;;;20.13;11.43;;;;;;;30.32;65.49;100655.91;5023113;28;70030;-38
2022/05/07 00:10:24;;;;;;;20.85;11.52;;;;;;;30.34;65.94;100660.06;5041473;28;65847;-39
2022/05/07 00:12:54;;;;;;;16.05;11.18;;;;;;;30.36;66.87;100662.53;5021976;28;70044;-39
2022/05/07 00:15:25;;;;;;;19.33;11.13;;;;;;;30.40;66.28;100664.59;5020360;28;66152;-40
2022/05/07 00:18:03;;;;;;;24.10;10.87;;;;;;;30.42;65.78;100658.94;5019749;28;70062;-37
2022/05/07 00:20:34;;;;;;;18.30;11.00;;;;;;;30.44;65.30;100675.78;5025991;28;66108;-38
2022/05/07 00:23:05;;;;;;;18.65;9.23;;;;;;;30.48;65.23;100682.44;5030361;28;69224;-40
2022/05/07 00:25:35;;;;;;;12.73;9.02;;;;;;;30.14;65.91;100626.91;5032870;28;65998;-40
2022/05/07 00:28:05;;;;;;;22.83;13.18;;;;;;;30.51;65.58;100684.69;5032310;28;69931;-41
2022/05/07 00:30:35;;;;;;;26.67;10.68;;;;;;;30.56;65.51;100690.22;5028994;28;66286;-41
2022/05/07 00:33:06;;;;;;;24.13;12.38;;;;;;;30.50;65.21;100678.41;5031347;28;70379;-41
2022/05/07 00:35:36;;;;;;;16.92;10.85;;;;;;;30.67;64.14;100692.25;5036723;28;66715;-40
2022/05/07 00:38:06;;;;;;;13.15;8.95;;;;;;;30.76;64.03;100702.75;5024210;28;70118;-40
2022/05/07 00:40:37;;;;;;;21.02;9.63;;;;;;;30.78;63.83;100697.94;5017917;28;67099;-39
2022/05/07 00:43:07;;;;;;;13.10;8.63;;;;;;;30.90;63.31;100704.31;5019736;28;70434;-40
2022/05/07 00:45:37;;;;;;;17.25;8.05;;;;;;;30.97;62.78;100702.34;5019119;28;66378;-41
2022/05/07 00:48:08;;;;;;;8.77;7.97;;;;;;;30.91;62.97;100687.84;5018820;28;70409;-40
2022/05/07 00:53:28;;;;;;;8.50;7.65;;;;;;;31.12;62.42;100704.69;5017900;28;70507;-41
2022/05/07 00:55:59;;;;;;;9.75;8.23;;;;;;;31.15;62.19;100712.38;5018830;28;67465;-41
2022/05/07 00:58:29;;;;;;;8.60;7.70;;;;;;;31.21;61.83;100713.34;5019417;28;70349;-39
2022/05/07 01:00:59;;;;;;;7.90;7.15;;;;;;;31.24;61.50;100712.91;5020592;28;66937;-38
2022/05/07 01:03:30;;;;;;;7.38;6.60;;;;;;;31.28;61.52;100725.75;5019879;28;69714;-38
2022/05/07 01:06:01;;;;;;;8.23;7.47;;;;;;;31.24;61.61;100712.91;5017994;28;65753;-38
2022/05/07 01:08:33;;;;;;;6.68;6.18;;;;;;;31.34;60.94;100726.72;5018788;28;69177;-39
2022/05/07 01:11:04;;;;;;;12.10;6.77;;;;;;;31.35;61.30;100728.41;5023971;28;66086;-40
2022/05/07 01:13:35;;;;;;;7.70;7.03;;;;;;;31.40;60.79;100728.59;5037348;28;69627;-39
2022/05/07 01:16:05;;;;;;;7.20;6.57;;;;;;;31.44;60.90;100740.59;5039895;28;66951;-39
2022/05/07 01:18:40;;;;;;;7.68;6.53;;;;;;;31.43;60.47;100738.97;5039766;28;70347;-40
2022/05/07 01:21:17;;;;;;;8.15;6.63;;;;;;;31.22;60.56;100698.75;5038510;28;66313;-39
2022/05/07 01:23:51;;;;;;;9.30;6.30;;;;;;;31.54;60.53;100745.50;5040702;28;70579;-39
2022/05/07 01:26:24;;;;;;;7.22;6.60;;;;;;;31.56;59.85;100752.31;5037347;28;66197;-38
2022/05/07 01:29:07;;;;;;;7.00;6.05;;;;;;;31.13;60.36;100680.09;5036953;28;70458;-38
2022/05/07 01:31:41;;;;;;;7.22;6.60;;;;;;;31.49;59.99;100740.75;5021462;28;66640;-40
2022/05/07 01:34:12;;;;;;;7.20;6.50;;;;;;;31.65;60.14;100760.16;5038880;28;69494;-40
2022/05/07 01:36:48;;;;;;;6.90;6.28;;;;;;;31.67;59.35;100755.34;5038239;28;66401;-39
2022/05/07 01:39:19;;;;;;;7.13;6.43;;;;;;;31.67;59.33;100767.00;5038375;28;69472;-39
2022/05/07 01:41:50;;;;;;;6.32;5.82;;;;;;;31.72;59.48;100767.16;5037952;28;66241;-39
2022/05/07 01:44:21;;;;;;;6.45;5.85;;;;;;;31.48;59.34;100727.41;5022729;28;69917;-40
2022/05/07 01:49:40;;;;;;;6.88;6.15;;;;;;;31.78;59.37;100763.50;5037943;28;70612;-39
2022/05/07 01:52:10;;;;;;;6.55;5.82;;;;;;;31.75;58.99;100763.16;5036638;28;66571;-39
2022/05/07 01:54:45;;;;;;;6.50;5.97;;;;;;;31.82;59.17;100774.75;5038862;28;70441;-39
2022/05/07 01:57:17;;;;;;;7.03;6.32;;;;;;;31.42;58.65;100710.19;5022394;28;65668;-39
2022/05/07 01:59:47;;;;;;;6.33;5.87;;;;;;;31.85;58.69;100785.16;5037862;28;70823;-40
2022/05/07 02:02:18;;;;;;;6.20;5.70;;;;;;;31.86;58.29;100781.38;5038473;28;65596;-39
2022/05/07 02:04:48;;;;;;;7.25;6.22;;;;;;;31.91;58.29;100784.25;5038347;28;70369;-40
2022/05/07 02:07:22;;;;;;;6.85;6.22;;;;;;;31.91;57.86;100777.97;5039857;28;66014;-40
2022/05/07 02:09:53;;;;;;;6.40;5.85;;;;;;;31.98;57.70;100790.44;5041671;28;70114;-40
2022/05/07 02:12:23;;;;;;;8.05;6.18;;;;;;;32.02;58.11;100788.91;5041835;28;65791;-39
2022/05/07 02:14:56;;;;;;;5.97;5.47;;;;;;;31.91;57.63;100772.56;5042381;28;42968;-39
2022/05/07 02:17:27;;;;;;;5.82;5.30;;;;;;;31.98;57.87;100787.72;5026827;28;66211;-39
2022/05/07 02:19:58;;;;;;;5.75;5.35;;;;;;;32.09;57.89;100799.66;5042212;28;70327;-39
2022/05/07 02:22:30;;;;;;;6.15;5.75;;;;;;;32.13;57.83;100802.75;5042563;28;66197;-40
2022/05/07 02:25:01;;;;;;;5.97;5.47;;;;;;;32.13;57.65;100791.88;5043205;28;70164;-40
2022/05/07 02:27:32;;;;;;;5.65;5.15;;;;;;;32.10;57.56;100781.50;5040610;28;66656;-39
2022/05/07 02:30:04;;;;;;;5.60;5.20;;;;;;;32.20;57.21;100792.59;5042487;28;69691;-39
2022/05/07 02:32:34;;;;;;;5.38;4.88;;;;;;;31.93;57.15;100749.59;5042422;28;66832;-40
2022/05/07 02:35:08;;;;;;;5.43;5.03;;;;;;;32.25;57.33;100790.03;5059248;28;69424;-40
2022/05/07 02:37:42;;;;;;;5.93;5.43;;;;;;;32.27;56.94;100790.63;5041628;28;66251;-40
2022/05/07 02:40:13;;;;;;;;;;;;;;;31.98;58.19;100784.16;5057830;28;69218;-38
2022/05/07 02:42:47;;;;;;;5.60;5.10;;;;;;;32.26;57.50;100792.53;5041544;28;65484;-40
2022/05/07 02:45:19;;;;;;;9.18;5.10;;;;;;;32.32;57.16;100785.34;5058154;28;69615;-39
2022/05/07 02:47:53;;;;;;;5.10;4.70;;;;;;;32.34;57.12;100776.94;5039628;28;65533;-40
2022/05/07 02:50:24;;;;;;;5.00;4.63;;;;;;;32.37;57.21;100785.44;5041294;28;70331;-40
2022/05/07 02:52:54;;;;;;;5.13;4.60;;;;;;;32.08;56.92;100732.06;5041116;28;65702;-40
2022/05/07 02:55:25;;;;;;;5.47;4.93;;;;;;;32.07;56.76;100738.53;5041232;28;70204;-40
2022/05/07 02:57:57;;;;;;;5.07;4.70;;;;;;;32.42;56.86;100785.56;5045582;28;66336;-39
2022/05/07 03:00:28;;;;;;;5.20;4.70;;;;;;;32.44;56.93;100788.88;5036354;28;69439;-38
2022/05/07 03:02:58;;;;;;;6.25;4.75;;;;;;;32.43;57.00;100789.13;5041422;28;66557;-39
2022/05/07 03:05:30;;;;;;;4.97;4.43;;;;;;;32.42;56.96;100774.72;5042040;28;69342;-40
2022/05/07 03:08:00;;;;;;;6.78;4.72;;;;;;;32.49;56.95;100786.34;5036842;28;66344;-40
2022/05/07 03:10:34;;;;;;;10.70;5.40;;;;;;;32.49;56.61;100778.19;5032421;28;69563;-40
2022/05/07 03:13:05;;;;;;;5.10;4.70;;;;;;;32.53;56.94;100772.28;5048085;28;66198;-40
2022/05/07 03:15:35;;;;;;;4.90;4.50;;;;;;;32.52;56.64;100771.47;5013467;28;70004;-40
2022/05/07 03:18:12;;;;;;;9.30;4.50;;;;;;;32.54;56.63;100771.22;5040287;28;66280;-40
2022/05/07 03:20:43;;;;;;;4.68;4.20;;;;;;;32.56;56.55;100767.22;5039822;28;70012;-39
2022/05/07 03:23:19;;;;;;;7.65;5.32;;;;;;;32.56;56.10;100763.69;5040416;28;65352;-39
2022/05/07 03:25:53;;;;;;;6.30;5.32;;;;;;;32.59;56.36;100774.06;5036725;28;69352;-39
2022/05/07 03:28:23;;;;;;;5.78;5.20;;;;;;;32.44;56.46;100742.75;5040772;28;66373;-39
2022/05/07 03:30:53;;;;;;;6.03;5.05;;;;;;;32.61;56.49;100761.91;5035741;28;68960;-39
2022/05/07 03:33:25;;;;;;;5.47;4.97;;;;;;;32.59;56.52;100753.16;5055948;28;65801;-40
2022/05/07 03:35:56;;;;;;;5.50;4.90;;;;;;;32.63;56.89;100759.78;5038963;28;70253;-39
2022/05/07 03:38:26;;;;;;;4.75;4.35;;;;;;;32.70;56.83;100755.06;5041281;28;66121;-42
2022/05/07 03:41:06;;;;;;;6.25;4.60;;;;;;;32.75;57.10;100745.38;5024310;28;69325;-40
2022/05/07 03:43:40;;;;;;;4.47;4.18;;;;;;;32.70;56.91;100724.34;5057296;28;66544;-38
2022/05/07 03:46:10;;;;;;;5.65;5.15;;;;;;;32.83;57.04;100742.31;5042167;28;70532;-38
2022/05/07 03:48:51;;;;;;;6.55;5.25;;;;;;;32.82;57.22;100736.06;5038253;28;66598;-38
2022/05/07 03:51:21;;;;;;;6.95;5.38;;;;;;;32.88;57.25;100739.72;5023932;28;70175;-40
2022/05/07 03:53:57;;;;;;;7.47;5.38;;;;;;;32.90;57.56;100735.72;5039963;28;66555;-38
2022/05/07 03:56:27;;;;;;;7.70;5.47;;;;;;;32.93;57.86;100732.50;5037930;28;70423;-40
2022/05/07 03:58:58;;;;;;;12.63;6.23;;;;;;;32.82;58.00;100714.34;5034329;28;67943;-39
2022/05/07 04:01:39;;;;;;;5.97;5.28;;;;;;;32.96;58.00;100735.78;5025514;28;69259;-38
2022/05/07 04:04:10;;;;;;;5.60;5.05;;;;;;;32.91;58.20;100718.31;5036267;28;66272;-38
2022/05/07 04:06:40;;;;;;;8.60;5.80;;;;;;;32.92;58.32;100725.41;5019474;28;70126;-38
2022/05/07 04:09:11;;;;;;;6.63;5.90;;;;;;;33.05;58.37;100734.41;5032392;28;65956;-39
2022/05/07 04:11:41;;;;;;;9.38;6.35;;;;;;;33.07;58.40;100726.81;5030526;28;70076;-38
2022/05/07 04:14:11;;;;;;;6.10;5.50;;;;;;;33.03;58.49;100714.78;5039555;28;66599;-38
2022/05/07 04:16:41;;;;;;;7.43;5.70;;;;;;;33.10;58.50;100723.66;5040857;28;70129;-38
2022/05/07 04:19:15;;;;;;;9.57;5.90;;;;;;;33.11;58.55;100717.16;5039351;28;65754;-39
2022/05/07 04:21:48;;;;;;;5.90;5.40;;;;;;;33.09;58.64;100709.22;5040610;28;70326;-39
2022/05/07 04:24:23;;;;;;;6.80;6.15;;;;;;;33.13;58.54;100704.16;5041038;28;66136;-38
2022/05/07 04:26:57;;;;;;;17.10;5.93;;;;;;;33.18;58.69;100690.66;5056845;28;70349;-38
2022/05/07 04:29:28;;;;;;;14.13;6.13;;;;;;;33.09;58.53;100692.09;5037973;28;66670;-39
2022/05/07 04:32:10;;;;;;;16.47;6.50;;;;;;;33.22;58.54;100702.69;5038890;28;70267;-38
2022/05/07 04:34:41;;;;;;;9.93;6.73;;;;;;;33.16;58.76;100700.94;5039488;28;66138;-37
2022/05/07 04:37:11;;;;;;;18.67;7.40;;;;;;;33.28;58.63;100699.00;5038529;28;70982;-39
2022/05/07 04:39:42;;;;;;;26.23;6.13;;;;;;;33.24;58.93;100689.69;5038073;28;65252;-39
2022/05/07 04:42:13;;;;;;;13.23;5.78;;;;;;;33.31;58.60;100684.94;5021046;28;69655;-38
2022/05/07 04:44:52;;;;;;;10.23;6.40;;;;;;;33.35;58.61;100686.13;5039433;28;66331;-39
2022/05/07 04:47:54;;;;;;;12.35;6.35;;;;;;;33.32;58.58;100675.72;5030477;28;69980;-40
2022/05/07 04:50:32;;;;;;;11.73;6.97;;;;;;;33.40;58.58;100670.97;5039573;28;66720;-40
2022/05/07 04:53:32;;;;;;;12.85;6.68;;;;;;;33.40;58.49;100660.09;5031347;28;70022;-38
2022/05/07 04:56:11;;;;;;;10.18;7.05;;;;;;;33.43;58.62;100656.88;5039258;28;65740;-40
2022/05/07 04:58:52;;;;;;;19.17;7.53;;;;;;;33.46;58.91;100659.09;5037909;28;70081;-39
2022/05/07 05:01:28;;;;;;;9.00;6.18;;;;;;;33.49;59.08;100654.03;5031974;28;66250;-38
2022/05/07 05:03:59;;;;;;;9.45;6.38;;;;;;;33.52;58.68;100650.00;5035837;28;69532;-40
2022/05/07 05:06:33;;;;;;;13.77;6.97;;;;;;;33.51;58.48;100634.72;5035028;28;66690;-39
2022/05/07 05:09:13;;;;;;;7.65;6.88;;;;;;;33.57;58.68;100637.34;5034977;28;70127;-39
2022/05/07 05:12:02;;;;;;;6.78;6.05;;;;;;;33.61;58.36;100640.41;5039046;28;66617;-38
2022/05/07 05:17:40;;;;;;;9.02;6.30;;;;;;;33.62;58.27;100633.06;5046820;28;66492;-38
2022/05/07 05:20:10;;;;;;;7.57;5.75;;;;;;;33.69;57.95;100631.84;5034585;28;70455;-41
2022/05/07 05:22:49;;;;;;;9.10;5.68;;;;;;;33.70;57.82;100636.19;5033099;28;65816;-39
2022/05/07 05:25:24;;;;;;;6.68;6.05;;;;;;;33.70;57.53;100630.75;5033624;28;69905;-39
2022/05/07 05:27:57;;;;;;;6.28;5.70;;;;;;;33.72;57.57;100635.97;5033771;28;66709;-38
2022/05/07 05:30:29;;;;;;;9.73;6.05;;;;;;;33.66;57.77;100624.16;5005899;28;69530;-38
2022/05/07 05:33:08;;;;;;;8.48;5.97;;;;;;;33.75;57.46;100624.59;5034352;28;66157;-39
2022/05/07 05:35:43;;;;;;;12.45;6.00;;;;;;;33.76;57.58;100627.03;5031215;28;69895;-40
2022/05/07 05:38:18;;;;;;;5.70;5.28;;;;;;;33.79;57.64;100615.69;5023010;28;65995;-39
2022/05/07 05:40:49;;;;;;;7.57;6.13;;;;;;;33.74;57.69;100615.59;5038358;28;70010;-37
2022/05/07 05:43:19;;;;;;;5.97;5.57;;;;;;;33.75;58.04;100609.09;5020168;28;66132;-37
2022/05/07 05:45:51;;;;;;;7.57;6.10;;;;;;;33.60;58.21;100587.09;5018996;28;68664;-39
2022/05/07 05:48:24;;;;;;;5.97;5.30;;;;;;;33.68;58.00;100602.16;5035060;28;65600;-39
2022/05/07 05:50:54;;;;;;;5.82;5.43;;;;;;;33.62;58.00;100598.50;5021025;28;69999;-38
2022/05/07 05:53:26;;;;;;;6.10;5.60;;;;;;;33.59;58.58;100593.56;5051206;28;66132;-40
2022/05/07 05:55:58;;;;;;;6.10;5.55;;;;;;;33.60;58.53;100592.53;5039725;28;70147;-39
2022/05/07 05:58:37;;;;;;;5.05;4.75;;;;;;;33.56;58.39;100588.63;5035838;28;65950;-40
2022/05/07 06:01:08;;;;;;;6.75;6.22;;;;;;;33.48;58.82;100586.28;5028679;28;70469;-40
2022/05/07 06:03:51;;;;;;;8.50;5.40;;;;;;;33.53;58.75;100586.41;5021271;28;65840;-40
2022/05/07 06:06:22;;;;;;;8.07;5.57;;;;;;;33.52;58.70;100582.00;5023017;28;70344;-40
2022/05/07 06:08:52;;;;;;;5.40;5.00;;;;;;;33.52;58.56;100592.88;5053869;28;65633;-40
2022/05/07 06:11:23;;;;;;;8.55;5.15;;;;;;;33.55;58.68;100581.56;5029608;28;70219;-40
2022/05/07 06:13:53;;;;;;;5.78;5.38;;;;;;;33.52;58.86;100576.56;5041148;28;65613;-43
2022/05/07 06:16:26;;;;;;;5.25;4.88;;;;;;;33.44;58.43;100563.38;5040103;28;70386;-40
2022/05/07 06:18:59;;;;;;;5.38;4.97;;;;;;;33.54;58.15;100577.16;5042983;28;66114;-40
2022/05/07 06:21:30;;;;;;;4.70;4.40;;;;;;;33.44;58.57;100557.94;5042333;28;70452;-40
2022/05/07 06:27:28;;;;;;;4.70;4.40;;;;;;;33.53;58.59;100564.66;5040330;28;65775;-39
2022/05/07 06:29:40;;;;;;;5.05;4.65;;;;;;;33.57;58.67;100563.06;5041549;28;65938;-40
2022/05/07 06:32:14;;;;;;;4.72;4.32;;;;;;;33.49;58.96;100541.69;5023582;28;69725;-39
2022/05/07 06:34:44;;;;;;;6.50;5.13;;;;;;;33.63;59.21;100551.22;5020957;28;66441;-38
2022/05/07 06:37:14;;;;;;;8.20;5.72;;;;;;;33.76;59.32;100544.63;5026857;28;69165;-39
2022/05/07 06:39:53;;;;;;;9.55;5.35;;;;;;;33.85;59.18;100542.28;5038406;28;65598;-39
2022/05/07 06:42:24;;;;;;;8.98;5.60;;;;;;;33.79;58.86;100517.75;5043111;28;70038;-40
2022/05/07 06:45:11;;;;;;;7.15;5.15;;;;;;;33.98;58.99;100541.97;5056774;28;65617;-39
2022/05/07 06:47:41;;;;;;;6.03;5.43;;;;;;;34.03;58.98;100539.31;5059004;28;70425;-39
2022/05/07 06:50:13;;;;;;;6.03;5.57;;;;;;;34.08;58.84;100527.72;5058146;28;65292;-41
2022/05/07 06:52:46;;;;;;;13.02;5.13;;;;;;;34.08;58.59;100519.56;5040057;28;69981;-39
2022/05/07 06:55:18;;;;;;;7.72;5.65;;;;;;;34.20;58.70;100531.97;5040373;28;66534;-40
2022/05/07 06:57:48;;;;;;;;;;;;;;;33.94;59.27;100524.50;5042567;28;69132;-39
2022/05/07 07:00:38;;;;;;;8.35;6.22;;;;;;;34.21;58.57;100509.13;5038922;28;66658;-39
2022/05/07 07:03:08;;;;;;;9.80;5.03;;;;;;;34.31;58.22;100502.16;5042011;28;70219;-40
2022/05/07 07:05:38;;;;;;;6.65;4.88;;;;;;;34.38;58.46;100519.97;5040804;28;65665;-40
2022/05/07 07:08:13;;;;;;;;;;;;;;;34.13;59.04;100508.72;5041307;28;70048;-40
2022/05/07 07:10:43;;;;;;;17.85;6.10;;;;;;;34.40;58.14;100485.09;5042351;28;66393;-40
2022/05/07 07:13:16;;;;;;;12.70;5.43;;;;;;;34.48;58.41;100492.00;5041170;28;69915;-40
2022/05/07 07:15:46;;;;;;;8.57;6.03;;;;;;;34.52;58.35;100503.22;5041893;28;67161;-39
2022/05/07 07:18:17;;;;;;;6.90;5.90;;;;;;;34.43;58.00;100481.88;5025182;28;70351;-39
2022/05/07 07:20:49;;;;;;;8.48;5.68;;;;;;;34.53;58.06;100492.09;5022269;28;66367;-40
2022/05/07 07:23:19;;;;;;;;;;;;;;;34.30;58.62;100485.00;5027353;28;69518;-40
2022/05/07 07:25:48;;;;;;;10.30;5.80;;;;;;;34.53;57.92;100485.81;5041452;28;66741;-40
2022/05/07 07:28:19;;;;;;;7.22;5.70;;;;;;;34.58;58.11;100481.28;5042576;28;69850;-40
2022/05/07 07:30:49;;;;;;;12.75;6.15;;;;;;;34.66;57.71;100482.75;5042510;28;66202;-40
2022/05/07 07:33:19;;;;;;;10.07;6.07;;;;;;;34.72;57.55;100478.16;5039451;28;70000;-40
2022/05/07 07:35:49;;;;;;;5.93;5.30;;;;;;;34.74;57.69;100478.72;5042005;28;65450;-40
2022/05/07 07:38:27;;;;;;;5.93;5.28;;;;;;;34.76;57.45;100476.56;5042101;28;70066;-40
2022/05/07 07:40:57;;;;;;;6.18;5.50;;;;;;;34.79;57.39;100481.50;5039998;28;65533;-40
2022/05/07 07:43:27;;;;;;;8.57;5.47;;;;;;;34.81;57.20;100474.72;5042078;28;70093;-41
2022/05/07 07:48:46;;;;;;;5.68;5.13;;;;;;;34.84;57.11;100468.75;5040799;28;69838;-41
2022/05/07 07:51:18;;;;;;;8.63;5.18;;;;;;;34.88;56.85;100464.44;5041777;28;66391;-39
2022/05/07 07:53:49;;;;;;;6.95;5.82;;;;;;;34.88;57.08;100459.00;5038217;28;70143;-39
2022/05/07 07:56:19;;;;;;;7.88;5.20;;;;;;;34.87;57.13;100451.06;5040623;28;64745;-38
2022/05/07 07:58:51;;;;;;;11.85;5.35;;;;;;;34.91;57.02;100446.75;5038836;28;70032;-40
2022/05/07 08:01:21;;;;;;;11.55;5.60;;;;;;;34.98;56.61;100463.69;5040488;28;66627;-39
2022/05/07 08:03:51;;;;;;;15.20;5.43;;;;;;;34.97;56.82;100461.25;5040649;28;69873;-40
2022/05/07 08:06:21;;;;;;;14.63;6.13;;;;;;;35.01;56.69;100463.19;5040828;28;65492;-40
2022/05/07 08:11:41;;;;;;;12.70;6.55;;;;;;;35.05;56.18;100458.88;5041639;28;66631;-41
2022/05/07 08:14:14;;;;;;;14.57;6.25;;;;;;;35.00;55.92;100445.19;5037908;28;70449;-40
2022/05/07 08:16:45;;;;;;;10.75;5.93;;;;;;;35.02;56.11;100453.94;5041467;28;65634;-40
2022/05/07 08:19:16;;;;;;;7.45;5.63;;;;;;;35.10;55.71;100455.38;5021568;28;70138;-40
2022/05/07 08:21:47;;;;;;;12.38;6.55;;;;;;;35.09;55.93;100454.56;5056953;28;66416;-39
2022/05/07 08:24:17;;;;;;;8.83;5.97;;;;;;;35.11;55.70;100460.59;5040807;28;69564;-39
2022/05/07 08:26:48;;;;;;;10.13;6.63;;;;;;;35.07;55.93;100439.53;5040529;28;66397;-40
2022/05/07 08:29:20;;;;;;;18.60;6.60;;;;;;;35.16;55.54;100448.06;5040879;28;68955;-40
2022/05/07 08:31:50;;;;;;;8.00;5.47;;;;;;;35.16;55.38;100453.50;5041390;28;65787;-39
2022/05/07 08:34:21;;;;;;;9.63;6.10;;;;;;;35.18;55.41;100459.53;5039284;28;70171;-40
2022/05/07 08:36:51;;;;;;;15.55;6.30;;;;;;;35.19;55.67;100463.91;5039437;28;66315;-40
2022/05/07 08:39:25;;;;;;;10.85;5.50;;;;;;;35.17;55.56;100455.19;5038668;28;69058;-40
2022/05/07 08:41:56;;;;;;;10.45;5.97;;;;;;;35.20;55.41;100447.28;5018459;28;65719;-40
2022/05/07 08:44:27;;;;;;;9.63;5.22;;;;;;;35.22;55.53;100452.50;5018839;28;69856;-39
2022/05/07 08:46:57;;;;;;;6.68;4.88;;;;;;;35.19;55.61;100431.19;5020854;28;65280;-39
2022/05/07 08:49:29;;;;;;;8.10;4.65;;;;;;;35.16;55.39;100426.25;5019850;28;71189;-40
2022/05/07 08:52:02;;;;;;;11.05;5.13;;;;;;;35.22;55.40;100422.50;5021032;28;65624;-39
2022/05/07 08:54:32;;;;;;;12.68;5.13;;;;;;;35.20;54.94;100424.66;5017872;28;69892;-38
2022/05/07 08:57:04;;;;;;;6.15;5.22;;;;;;;35.13;55.10;100412.09;5020685;28;67950;-40
2022/05/07 08:59:34;;;;;;;;;;;;;;;34.95;56.03;100420.59;5021352;28;70506;-40
2022/05/07 09:02:04;;;;;;;10.02;5.15;;;;;;;35.22;55.19;100419.78;5018231;28;65718;-39
2022/05/07 09:04:36;;;;;;;11.10;5.72;;;;;;;35.16;54.96;100409.91;5020229;28;69554;-39
2022/05/07 09:07:15;;;;;;;8.70;5.28;;;;;;;35.00;54.95;100387.97;5019332;28;66218;-39
2022/05/07 09:09:49;;;;;;;8.63;5.05;;;;;;;35.23;55.10;100410.50;5019327;28;70353;-39
2022/05/07 09:12:24;;;;;;;13.57;5.47;;;;;;;34.88;55.08;100354.59;5037718;28;66376;-39
2022/05/07 09:15:04;;;;;;;10.82;5.22;;;;;;;35.12;55.38;100396.78;5039606;28;70117;-38
2022/05/07 09:17:36;;;;;;;10.48;6.47;;;;;;;35.17;55.51;100427.91;5040673;28;66842;-40
2022/05/07 09:20:16;;;;;;;9.32;5.47;;;;;;;35.25;55.17;100427.44;5039959;28;69430;-39
2022/05/07 09:22:56;;;;;;;9.57;5.30;;;;;;;35.21;55.36;100421.66;5038580;28;65978;-39
2022/05/07 09:25:28;;;;;;;7.15;5.22;;;;;;;35.25;55.65;100435.63;5019848;28;70149;-40
2022/05/07 09:27:59;;;;;;;5.88;5.30;;;;;;;35.19;55.92;100432.03;5019103;28;65885;-39
2022/05/07 09:30:32;;;;;;;9.52;6.10;;;;;;;35.24;55.76;100439.41;5020920;28;70011;-40
2022/05/07 09:33:03;;;;;;;10.75;5.65;;;;;;;35.23;55.78;100438.59;5030231;28;66612;-39
2022/05/07 09:35:49;;;;;;;9.18;5.93;;;;;;;35.22;56.05;100441.59;5036557;28;70429;-40
2022/05/07 09:38:29;;;;;;;13.65;6.20;;;;;;;35.08;56.65;100447.47;5026115;28;66357;-39
2022/05/07 09:40:59;;;;;;;10.07;6.22;;;;;;;34.91;56.99;100430.41;5026750;28;69406;-39
2022/05/07 09:43:31;;;;;;;11.93;6.78;;;;;;;34.49;57.38;100395.59;5034665;28;66789;-38
2022/05/07 09:46:02;;;;;;;9.43;6.13;;;;;;;34.83;57.23;100449.94;5033633;28;70455;-39
2022/05/07 09:48:34;;;;;;;11.27;5.90;;;;;;;34.77;57.57;100453.66;5033799;28;66254;-40
2022/05/07 09:51:06;;;;;;;7.05;5.45;;;;;;;34.73;57.94;100460.72;5019480;28;69355;-40
2022/05/07 09:59:14;;;;;;;11.30;5.57;;;;;;;34.58;58.73;100470.38;5029256;28;66154;-38
2022/05/07 10:02:05;;;;;;;6.38;5.78;;;;;;;34.09;59.34;100409.59;5026029;28;70050;-36
2022/05/07 10:04:54;;;;;;;10.05;5.38;;;;;;;34.31;60.04;100489.38;5033283;28;65863;-37
2022/05/07 10:08:01;;;;;;;7.97;5.25;;;;;;;34.25;59.48;100488.47;5033051;28;70242;-37
2022/05/07 10:10:37;;;;;;;10.48;5.22;;;;;;;34.28;59.45;100484.44;5037222;28;66283;-36
2022/05/07 10:13:08;;;;;;;12.70;5.68;;;;;;;34.26;59.33;100489.28;5039965;28;69590;-35
2022/05/07 10:15:38;;;;;;;7.10;6.00;;;;;;;34.22;59.21;100494.44;5039717;28;67687;-35
2022/05/07 10:18:14;;;;;;;7.18;6.07;;;;;;;34.18;58.77;100476.94;5036797;28;70291;-37
2022/05/07 10:20:47;;;;;;;7.50;6.05;;;;;;;34.23;58.94;100490.63;5037713;28;65993;-38
2022/05/07 10:23:28;;;;;;;8.98;5.70;;;;;;;33.49;56.10;100392.13;5048040;28;69866;-38
2022/05/07 10:26:01;;;;;;;8.90;4.30;;;;;;;33.96;55.14;100484.22;5026780;28;65884;-41
2022/05/07 10:28:41;;;;;;;12.43;4.68;;;;;;;33.83;53.60;100495.50;5029087;28;69638;-42
2022/05/07 10:31:25;;;;;;;10.48;5.80;;;;;;;33.75;54.97;100478.50;5030630;28;65643;-42
2022/05/07 10:33:56;;;;;;;7.72;5.68;;;;;;;33.84;56.37;100480.81;5036710;28;70452;-38
2022/05/07 10:36:36;;;;;;;10.77;6.17;;;;;;;33.70;56.64;100475.72;5035482;28;67576;-39
2022/05/07 10:39:09;;;;;;;11.50;7.68;;;;;;;33.83;57.10;100495.50;5033000;28;70166;-39
2022/05/07 10:41:49;;;;;;;16.38;7.43;;;;;;;33.81;57.53;100498.44;5037958;28;66412;-38
2022/05/07 10:44:33;;;;;;;14.75;7.18;;;;;;;33.74;57.39;100492.34;5029901;28;70063;-39
2022/05/07 10:47:12;;;;;;;19.17;7.30;;;;;;;33.75;57.33;100492.09;5027996;28;66284;-39
2022/05/07 10:49:52;;;;;;;11.38;6.85;;;;;;;33.75;57.20;100497.53;5024422;28;69507;-39
2022/05/07 10:52:35;;;;;;;9.85;5.97;;;;;;;33.54;57.35;100471.09;5035896;28;66144;-39
2022/05/07 10:55:16;;;;;;;10.25;6.15;;;;;;;33.64;57.27;100493.03;5040347;28;70105;-38
2022/05/07 10:57:48;;;;;;;11.18;5.80;;;;;;;33.72;57.06;100498.03;5037242;28;66378;-38
2022/05/07 11:00:23;;;;;;;9.85;5.57;;;;;;;33.71;57.22;100504.56;5031618;28;70066;-40
2022/05/07 11:03:00;;;;;;;6.15;5.55;;;;;;;33.62;57.10;100489.72;5037706;28;66706;-38
2022/05/07 11:05:35;;;;;;;8.43;5.65;;;;;;;33.69;57.52;100509.44;5036773;28;70056;-39
2022/05/07 11:08:05;;;;;;;12.77;5.35;;;;;;;33.41;57.59;100460.56;5038450;28;66183;-39
2022/05/07 11:10:37;;;;;;;9.73;4.43;;;;;;;33.76;57.44;100490.22;5034513;28;70185;-39
2022/05/07 11:13:09;;;;;;;7.95;4.75;;;;;;;33.92;57.05;100504.88;5029029;28;66092;-38
2022/05/07 11:15:39;;;;;;;8.73;5.25;;;;;;;33.98;56.14;100514.75;5024597;28;70353;-39
2022/05/07 11:18:16;;;;;;;7.15;4.50;;;;;;;34.07;56.06;100512.44;5026185;28;66275;-41
2022/05/07 11:20:46;;;;;;;10.43;4.82;;;;;;;34.10;56.03;100510.06;5031196;28;70120;-40
2022/05/07 11:23:17;;;;;;;5.22;4.10;;;;;;;34.19;55.77;100516.72;5029360;28;66328;-38
2022/05/07 11:25:51;;;;;;;5.00;4.57;;;;;;;34.08;55.59;100487.72;5032269;28;69338;-39
2022/05/07 11:28:21;;;;;;;4.43;4.07;;;;;;;34.24;55.21;100514.06;5027239;28;65741;-39
2022/05/07 11:30:53;;;;;;;9.68;4.55;;;;;;;34.28;54.90;100513.56;5032912;28;69895;-40
2022/05/07 11:33:24;;;;;;;8.27;4.40;;;;;;;34.26;55.21;100511.91;5026295;28;65146;-40
2022/05/07 11:36:08;;;;;;;7.13;4.72;;;;;;;34.02;55.81;100529.50;5029664;28;71423;-39
2022/05/07 11:38:39;;;;;;;5.00;4.18;;;;;;;33.96;56.60;100527.78;5035027;28;66748;-39
2022/05/07 11:41:14;;;;;;;11.40;4.60;;;;;;;33.42;57.35;100459.47;5016076;28;70628;-40
2022/05/07 11:46:55;;;;;;;6.35;4.65;;;;;;;33.76;57.74;100544.63;5027175;28;70284;-40
2022/05/07 11:49:33;;;;;;;6.38;4.68;;;;;;;33.71;58.20;100531.78;5033229;28;66468;-40
2022/05/07 11:52:08;;;;;;;6.32;4.60;;;;;;;33.66;58.27;100523.53;5027781;28;70114;-40
2022/05/07 11:54:52;;;;;;;4.57;4.13;;;;;;;33.59;58.55;100522.84;5026290;28;66279;-39
2022/05/07 11:57:30;;;;;;;6.80;4.80;;;;;;;33.62;58.60;100537.84;5028375;28;69987;-38
2022/05/07 12:00:24;;;;;;;10.50;5.18;;;;;;;33.28;58.85;100511.44;5028877;28;66833;-41
2022/05/07 12:03:04;;;;;;;9.30;5.47;;;;;;;33.53;59.39;100542.88;5025585;28;70205;-40
2022/05/07 12:05:43;;;;;;;16.20;11.88;;;;;;;33.41;56.28;100550.28;5028829;28;66617;-41
2022/05/07 12:08:24;;;;;;;23.13;18.23;;;;;;;33.12;56.13;100512.25;5027506;28;70858;-43
2022/05/07 12:10:54;;;;;;;25.35;19.33;;;;;;;33.19;56.14;100540.09;5051115;28;66394;-42
2022/05/07 12:13:25;;;;;;;15.00;11.45;;;;;;;32.97;55.95;100529.06;5029398;28;68407;-42
2022/05/07 12:18:49;;;;;;;10.95;9.52;;;;;;;32.83;56.50;100542.13;5023871;28;69561;-41
2022/05/07 12:29:48;;;;;;;14.35;9.32;;;;;;;32.90;56.63;100559.09;5029795;28;66368;-39